Time;durP1;ratioP1;P1;durP2;ratioP2;P2;SDS_P1;SDS_P2;PMS_P1;PMS_P2;Temp;Humidity;BMP_temperature;BMP_pressure;BME280_temperature;BME280_humidity;BME280_pressure;Samples;Min_cycle;Max_cycle;Signal;HPM_P1;HPM_P2
2024/01/19 00:00:42;;;;;;;6.70;4.60;;;-0.70;99.90;;;;;;5063199;28;20052;-77
2024/01/19 00:03:09;;;;;;;8.80;5.03;;;-0.70;99.90;;;;;;5096552;28;20039;-77
2024/01/19 00:05:36;;;;;;;7.83;4.87;;;-0.70;99.90;;;;;;5079224;28;20040;-77
2024/01/19 00:08:03;;;;;;;8.63;4.10;;;-0.70;99.90;;;;;;5079609;28;20040;-77
2024/01/19 00:10:33;;;;;;;9.17;3.83;;;-0.70;99.90;;;;;;5079341;28;20416;-77
2024/01/19 00:13:00;;;;;;;12.60;4.63;;;-0.70;99.90;;;;;;5076510;28;20055;-77
2024/01/19 00:15:27;;;;;;;6.70;4.23;;;-0.70;99.90;;;;;;5043169;28;20495;-76
2024/01/19 00:18:07;;;;;;;7.37;3.77;;;-0.70;99.90;;;;;;5066312;28;20050;-77
2024/01/19 00:20:34;;;;;;;7.83;4.20;;;-0.70;99.90;;;;;;5079395;28;20044;-77
2024/01/19 00:23:01;;;;;;;8.93;5.00;;;-0.70;99.90;;;;;;5096185;28;20449;-77
2024/01/19 00:25:28;;;;;;;11.17;4.60;;;-0.70;99.90;;;;;;5095816;28;20035;-77
2024/01/19 00:27:57;;;;;;;6.10;3.90;;;-0.60;99.90;;;;;;5079303;28;20100;-77
2024/01/19 00:30:24;;;;;;;7.73;3.07;;;-0.60;99.90;;;;;;5088464;28;20040;-77
2024/01/19 00:32:51;;;;;;;5.73;2.97;;;-0.60;99.90;;;;;;5056152;28;20545;-77
2024/01/19 00:35:18;;;;;;;6.07;3.23;;;-0.50;99.90;;;;;;5062518;28;20073;-77
2024/01/19 00:37:48;;;;;;;6.10;2.73;;;-0.50;99.90;;;;;;5095691;28;20558;-76
2024/01/19 00:40:15;;;;;;;8.37;3.60;;;-0.60;99.90;;;;;;5096025;28;20461;-77
2024/01/19 00:42:42;;;;;;;5.73;3.37;;;-0.60;99.90;;;;;;5075811;28;20040;-76
2024/01/19 00:45:10;;;;;;;7.23;3.93;;;-0.60;99.90;;;;;;5092350;28;20587;-76
2024/01/19 00:47:37;;;;;;;8.30;4.03;;;-0.60;99.90;;;;;;5078789;28;20043;-77
2024/01/19 00:50:06;;;;;;;8.47;4.67;;;-0.60;99.90;;;;;;5078963;28;20048;-77
2024/01/19 00:52:33;;;;;;;7.17;3.33;;;-0.60;99.90;;;;;;5095509;28;20047;-77
2024/01/19 00:55:00;;;;;;;7.93;4.20;;;-0.50;99.90;;;;;;5078820;28;20043;-77
2024/01/19 00:57:27;;;;;;;7.20;3.93;;;-0.50;99.90;;;;;;5075343;28;20076;-76
2024/01/19 00:59:55;;;;;;;9.33;3.90;;;-0.40;99.90;;;;;;5087143;28;20048;-76
2024/01/19 01:02:22;;;;;;;7.83;3.77;;;-0.30;99.90;;;;;;5062269;28;20051;-77
2024/01/19 01:04:49;;;;;;;7.90;3.70;;;-0.20;99.90;;;;;;5077590;28;20036;-77
2024/01/19 01:07:16;;;;;;;7.67;3.00;;;-0.10;99.90;;;;;;5095391;28;20480;-77
2024/01/19 01:09:46;;;;;;;7.03;3.83;;;-0.10;99.90;;;;;;5058735;28;20051;-77
2024/01/19 01:12:14;;;;;;;8.77;3.60;;;0.00;99.90;;;;;;5074176;28;20048;-77
2024/01/19 01:14:41;;;;;;;5.53;3.17;;;0.00;99.90;;;;;;5078892;28;20118;-77
2024/01/19 01:17:08;;;;;;;4.90;2.03;;;0.00;99.90;;;;;;5085880;28;20044;-77
2024/01/19 01:19:35;;;;;;;4.33;2.47;;;0.00;99.90;;;;;;5064618;28;20051;-77
2024/01/19 01:22:02;;;;;;;4.33;1.80;;;0.00;99.90;;;;;;5061863;28;20092;-77
2024/01/19 01:24:29;;;;;;;2.47;1.40;;;-0.10;99.90;;;;;;5061461;28;20051;-77
2024/01/19 01:26:56;;;;;;;3.00;1.60;;;-0.10;99.90;;;;;;5078597;28;20039;-77
2024/01/19 01:29:23;;;;;;;3.17;1.60;;;-0.10;99.90;;;;;;5058624;28;20068;-77
2024/01/19 01:31:51;;;;;;;3.53;1.17;;;-0.10;99.90;;;;;;5061811;28;20143;-76
2024/01/19 01:34:18;;;;;;;3.47;1.23;;;-0.10;99.90;;;;;;5095174;28;20093;-76
2024/01/19 01:36:45;;;;;;;2.67;1.00;;;0.00;99.90;;;;;;5074856;28;20484;-77
2024/01/19 01:39:12;;;;;;;3.33;1.13;;;0.10;99.90;;;;;;5084876;28;20510;-77
2024/01/19 01:41:44;;;;;;;2.72;1.05;;;0.10;99.90;;;;;;5075838;28;20051;-76
2024/01/19 01:44:12;;;;;;;2.77;1.00;;;0.10;99.90;;;;;;5088343;28;20128;-77
2024/01/19 01:46:39;;;;;;;2.20;1.00;;;0.00;99.90;;;;;;5090045;28;20038;-77
2024/01/19 01:49:06;;;;;;;2.60;1.17;;;0.00;99.90;;;;;;5077970;28;20036;-77
2024/01/19 01:51:34;;;;;;;1.63;0.70;;;0.00;99.90;;;;;;5077300;28;20047;-77
2024/01/19 01:54:04;;;;;;;1.83;0.90;;;-0.10;99.90;;;;;;5071069;28;20064;-76
2024/01/19 01:56:32;;;;;;;2.43;0.80;;;-0.10;99.90;;;;;;5094884;28;20372;-77
2024/01/19 01:58:59;;;;;;;4.13;1.30;;;-0.10;99.90;;;;;;5061703;28;20065;-77
2024/01/19 02:01:27;;;;;;;2.17;1.27;;;-0.10;99.90;;;;;;5061647;28;20042;-77
2024/01/19 02:03:56;;;;;;;3.47;1.10;;;-0.10;99.90;;;;;;5094626;28;20067;-77
2024/01/19 02:06:23;;;;;;;2.80;1.00;;;-0.10;99.90;;;;;;5094877;28;20035;-77
2024/01/19 02:08:50;;;;;;;3.57;1.20;;;-0.10;99.90;;;;;;5094491;28;20044;-77
2024/01/19 02:11:17;;;;;;;2.13;1.00;;;-0.10;99.90;;;;;;5089150;28;20036;-76
2024/01/19 02:13:44;;;;;;;2.47;1.10;;;-0.10;99.90;;;;;;5092544;28;20035;-77
2024/01/19 02:16:11;;;;;;;2.63;1.10;;;-0.10;99.90;;;;;;5061607;28;20439;-77
2024/01/19 02:18:39;;;;;;;1.53;0.60;;;-0.20;99.90;;;;;;5073977;28;20518;-76
2024/01/19 02:21:06;;;;;;;1.60;0.67;;;-0.20;99.90;;;;;;5098504;28;20460;-77
2024/01/19 02:23:38;;;;;;;1.80;0.77;;;-0.20;99.90;;;;;;5098489;28;20047;-77
2024/01/19 02:26:06;;;;;;;2.53;0.77;;;-0.20;99.90;;;;;;5098036;28;20043;-77
2024/01/19 02:28:34;;;;;;;2.07;0.60;;;-0.30;99.90;;;;;;5081387;28;20035;-77
2024/01/19 02:31:01;;;;;;;2.60;0.70;;;-0.30;99.90;;;;;;5081197;28;20071;-77
2024/01/19 02:33:28;;;;;;;1.70;0.80;;;-0.30;99.90;;;;;;5064591;28;20407;-76
2024/01/19 02:35:55;;;;;;;1.87;0.80;;;-0.30;99.90;;;;;;5081321;28;20067;-76
2024/01/19 02:38:22;;;;;;;2.07;0.90;;;-0.30;99.90;;;;;;5097685;28;20423;-76
2024/01/19 02:40:49;;;;;;;3.00;1.00;;;-0.30;99.90;;;;;;5116062;28;20052;-76
2024/01/19 02:43:16;;;;;;;3.13;0.83;;;-0.30;99.90;;;;;;5081336;28;20045;-77
2024/01/19 02:45:43;;;;;;;1.73;0.87;;;-0.30;99.90;;;;;;5081346;28;20035;-76
2024/01/19 02:48:12;;;;;;;2.03;0.70;;;-0.40;99.90;;;;;;5064658;28;20070;-77
2024/01/19 02:50:39;;;;;;;1.57;0.80;;;-0.40;99.90;;;;;;5074519;28;20032;-77
2024/01/19 02:53:06;;;;;;;2.50;1.00;;;-0.40;99.90;;;;;;5073383;28;20048;-77
2024/01/19 02:55:33;;;;;;;1.60;0.70;;;-0.40;99.90;;;;;;5080875;28;20393;-77
2024/01/19 02:58:00;;;;;;;2.43;1.00;;;-0.40;99.90;;;;;;5097885;28;20047;-77
2024/01/19 03:00:27;;;;;;;2.63;0.70;;;-0.40;99.90;;;;;;5080877;28;20043;-76
2024/01/19 03:02:55;;;;;;;2.00;1.17;;;-0.40;99.90;;;;;;5080719;28;20050;-76
2024/01/19 03:05:21;;;;;;;3.83;0.93;;;-0.40;99.90;;;;;;5047723;28;20051;-77
2024/01/19 03:07:49;;;;;;;2.13;1.13;;;-0.40;99.90;;;;;;5081029;28;20046;-77
2024/01/19 03:10:16;;;;;;;2.47;1.20;;;-0.40;99.90;;;;;;5080650;28;20054;-77
2024/01/19 03:12:43;;;;;;;3.50;1.50;;;-0.40;99.90;;;;;;5044480;28;20040;-77
2024/01/19 03:15:10;;;;;;;2.97;1.40;;;-0.40;99.90;;;;;;5063674;28;20491;-77
2024/01/19 03:17:37;;;;;;;3.87;1.30;;;-0.40;99.90;;;;;;5076919;28;20105;-77
2024/01/19 03:20:05;;;;;;;2.47;1.07;;;-0.40;99.90;;;;;;5093570;28;20489;-76
2024/01/19 03:22:32;;;;;;;2.70;1.40;;;-0.40;99.90;;;;;;5077097;28;20040;-77
2024/01/19 03:24:59;;;;;;;2.60;1.30;;;-0.50;99.90;;;;;;5085634;28;20055;-77
2024/01/19 03:27:26;;;;;;;2.37;1.30;;;-0.50;99.90;;;;;;5067970;28;20079;-77
2024/01/19 03:29:55;;;;;;;4.27;1.77;;;-0.50;99.90;;;;;;5101872;28;20479;-77
2024/01/19 03:32:22;;;;;;;2.63;1.37;;;-0.50;99.90;;;;;;5097299;28;20092;-77
2024/01/19 03:34:49;;;;;;;4.87;1.70;;;-0.50;99.90;;;;;;5080478;28;20544;-76
2024/01/19 03:37:16;;;;;;;1.93;1.00;;;-0.60;99.90;;;;;;5080140;28;20041;-77
2024/01/19 03:39:43;;;;;;;2.27;1.10;;;-0.60;99.90;;;;;;5063446;28;20097;-77
2024/01/19 03:42:11;;;;;;;4.00;1.20;;;-0.70;99.90;;;;;;5080073;28;20510;-78
2024/01/19 03:44:40;;;;;;;1.90;0.90;;;-0.70;99.90;;;;;;5096724;28;20039;-78
2024/01/19 03:47:07;;;;;;;2.67;1.00;;;-0.70;99.90;;;;;;5096595;28;20096;-80
2024/01/19 03:49:34;;;;;;;2.93;1.13;;;-0.80;99.90;;;;;;5079992;28;20384;-79
2024/01/19 03:52:03;;;;;;;1.63;0.80;;;-0.80;99.90;;;;;;5096893;28;20040;-79
2024/01/19 03:54:32;;;;;;;2.17;1.07;;;-0.80;99.90;;;;;;5096974;28;20391;-79
2024/01/19 03:57:06;;;;;;;2.03;1.03;;;-0.90;99.90;;;;;;5079839;28;20461;-79
2024/01/19 03:59:33;;;;;;;3.53;1.10;;;-0.80;99.90;;;;;;5079745;28;20051;-79
2024/01/19 04:02:01;;;;;;;2.80;1.70;;;-0.80;99.90;;;;;;5079642;28;20047;-79
2024/01/19 04:04:28;;;;;;;2.20;1.00;;;-0.80;99.90;;;;;;5096379;28;20044;-79
2024/01/19 04:06:55;;;;;;;3.23;1.20;;;-0.70;99.90;;;;;;5096316;28;20491;-80
2024/01/19 04:09:23;;;;;;;2.40;1.23;;;-0.80;99.90;;;;;;5114447;28;20134;-80
2024/01/19 04:11:50;;;;;;;2.27;1.00;;;-0.80;99.90;;;;;;5096402;28;20126;-79
2024/01/19 04:14:17;;;;;;;2.90;1.53;;;-0.80;99.90;;;;;;5082672;28;20563;-79
2024/01/19 04:16:44;;;;;;;3.73;1.70;;;-0.80;99.90;;;;;;5076851;28;20141;-79
2024/01/19 04:19:11;;;;;;;4.60;2.43;;;-0.80;99.90;;;;;;5078885;28;20044;-79
2024/01/19 04:21:39;;;;;;;5.67;2.70;;;-0.80;99.90;;;;;;5096107;28;20047;-79
2024/01/19 04:24:06;;;;;;;3.70;1.80;;;-0.80;99.90;;;;;;5090820;28;20052;-79
2024/01/19 04:26:37;;;;;;;5.70;2.70;;;-0.80;99.90;;;;;;5073482;28;20055;-79
2024/01/19 04:29:04;;;;;;;6.27;3.50;;;-0.80;99.90;;;;;;5075757;28;20044;-79
2024/01/19 04:31:31;;;;;;;5.37;3.40;;;-0.70;99.90;;;;;;5093755;28;20040;-79
2024/01/19 04:33:58;;;;;;;5.43;3.17;;;-0.70;99.90;;;;;;5075146;28;20048;-79
2024/01/19 04:36:26;;;;;;;5.87;3.10;;;-0.60;99.90;;;;;;5092713;28;20062;-79
2024/01/19 04:38:53;;;;;;;5.70;2.50;;;-0.60;99.90;;;;;;5075548;28;20044;-79
2024/01/19 04:41:20;;;;;;;4.87;2.43;;;-0.70;99.90;;;;;;5075633;28;20411;-79
2024/01/19 04:43:48;;;;;;;4.60;2.73;;;-0.70;99.90;;;;;;5072152;28;20045;-79
2024/01/19 04:46:15;;;;;;;5.60;2.40;;;-0.70;99.90;;;;;;5072663;28;20210;-79
2024/01/19 04:48:42;;;;;;;8.17;3.30;;;-0.70;99.90;;;;;;5075468;28;20040;-79
2024/01/19 04:51:09;;;;;;;6.57;3.30;;;-0.70;99.90;;;;;;5075503;28;20044;-79
2024/01/19 04:53:36;;;;;;;5.60;3.47;;;-0.70;99.90;;;;;;5092191;28;20446;-79
2024/01/19 04:56:07;;;;;;;5.63;3.13;;;-0.70;99.90;;;;;;5075431;28;20040;-80
2024/01/19 04:58:38;;;;;;;5.20;2.73;;;-0.70;99.90;;;;;;5092152;28;20043;-79
2024/01/19 05:01:08;;;;;;;5.10;3.07;;;-0.70;99.90;;;;;;5075576;28;20123;-79
2024/01/19 05:03:35;;;;;;;7.20;3.10;;;-0.60;99.90;;;;;;5075686;28;20047;-79
2024/01/19 05:06:02;;;;;;;8.10;3.20;;;-0.60;99.90;;;;;;5058649;28;20050;-79
2024/01/19 05:08:29;;;;;;;5.17;3.10;;;-0.50;99.90;;;;;;5042099;28;20040;-79
2024/01/19 05:10:56;;;;;;;5.70;2.83;;;-0.40;99.90;;;;;;5075769;28;20054;-79
2024/01/19 05:13:23;;;;;;;5.70;3.07;;;-0.40;99.90;;;;;;5075528;28;20048;-79
2024/01/19 05:15:50;;;;;;;5.27;3.20;;;-0.40;99.90;;;;;;5075086;28;20047;-79
2024/01/19 05:18:17;;;;;;;5.03;3.30;;;-0.40;99.90;;;;;;5091755;28;20113;-79
2024/01/19 05:20:45;;;;;;;6.90;3.30;;;-0.30;99.90;;;;;;5072985;28;20055;-79
2024/01/19 05:23:12;;;;;;;5.80;3.80;;;-0.30;99.90;;;;;;5091741;28;20036;-80
2024/01/19 05:25:39;;;;;;;6.07;3.30;;;-0.20;99.90;;;;;;5091572;28;20048;-79
2024/01/19 05:28:07;;;;;;;8.43;3.90;;;-0.20;99.90;;;;;;5071764;28;20060;-79
2024/01/19 05:30:34;;;;;;;7.30;3.70;;;-0.20;99.90;;;;;;5074996;28;20040;-79
2024/01/19 05:33:01;;;;;;;7.83;3.97;;;-0.10;99.90;;;;;;5075005;28;20061;-79
2024/01/19 05:35:28;;;;;;;7.73;4.83;;;-0.20;99.90;;;;;;5091803;28;20040;-79
2024/01/19 05:37:55;;;;;;;8.40;4.77;;;-0.20;99.90;;;;;;5071621;28;20377;-79
2024/01/19 05:40:22;;;;;;;8.70;4.50;;;-0.10;99.90;;;;;;5059868;28;20064;-79
2024/01/19 05:42:49;;;;;;;9.83;4.67;;;-0.10;99.90;;;;;;5058407;28;20048;-79
2024/01/19 05:45:17;;;;;;;9.03;4.90;;;-0.20;99.90;;;;;;5075594;28;20511;-79
2024/01/19 05:47:44;;;;;;;8.23;4.87;;;-0.30;99.90;;;;;;5079038;28;20480;-80
2024/01/19 05:50:12;;;;;;;8.10;4.33;;;-0.30;99.90;;;;;;5079398;28;20036;-80
2024/01/19 05:52:38;;;;;;;8.07;3.80;;;-0.30;99.90;;;;;;5095560;28;20044;-80
2024/01/19 05:55:07;;;;;;;6.10;3.50;;;-0.30;99.90;;;;;;5059567;28;20185;-80
2024/01/19 05:57:34;;;;;;;5.93;3.47;;;-0.30;99.90;;;;;;5095529;28;20044;-79
2024/01/19 06:00:02;;;;;;;5.07;3.40;;;-0.30;99.90;;;;;;5062115;28;20036;-80
2024/01/19 06:02:37;;;;;;;7.33;3.37;;;-0.30;99.90;;;;;;5081109;28;20172;-79
2024/01/19 06:05:04;;;;;;;4.10;2.37;;;-0.40;99.90;;;;;;5062025;28;20578;-79
2024/01/19 06:07:32;;;;;;;5.40;2.47;;;-0.40;99.90;;;;;;5045396;28;20130;-79
2024/01/19 06:09:59;;;;;;;5.23;2.43;;;-0.40;99.90;;;;;;5078565;28;20079;-79
2024/01/19 06:12:26;;;;;;;5.03;1.90;;;-0.50;99.90;;;;;;5078448;28;20059;-79
2024/01/19 06:14:53;;;;;;;3.13;1.73;;;-0.50;99.90;;;;;;5095302;28;20047;-80
2024/01/19 06:17:20;;;;;;;5.23;1.73;;;-0.50;99.90;;;;;;5060029;28;20067;-80
2024/01/19 06:19:47;;;;;;;3.80;1.47;;;-0.60;99.90;;;;;;5074794;28;20576;-78
2024/01/19 06:22:14;;;;;;;4.37;2.27;;;-0.60;99.90;;;;;;5072500;28;20078;-78
2024/01/19 06:24:41;;;;;;;4.23;2.27;;;-0.60;99.90;;;;;;5077908;28;20052;-78
2024/01/19 06:27:08;;;;;;;4.07;1.80;;;-0.70;99.90;;;;;;5077915;28;20070;-78
2024/01/19 06:29:35;;;;;;;4.77;2.27;;;-0.70;99.90;;;;;;5078110;28;20400;-78
2024/01/19 06:32:02;;;;;;;5.10;2.73;;;-0.70;99.90;;;;;;5077936;28;20135;-78
2024/01/19 06:34:30;;;;;;;4.40;2.10;;;-0.70;99.90;;;;;;5077908;28;20481;-80
2024/01/19 06:36:56;;;;;;;4.17;2.23;;;-0.80;99.90;;;;;;5078015;28;20072;-80
2024/01/19 06:39:23;;;;;;;5.20;1.90;;;-0.80;99.90;;;;;;5094758;28;20040;-80
2024/01/19 06:41:50;;;;;;;4.87;2.30;;;-0.80;99.90;;;;;;5077896;28;20040;-80
2024/01/19 06:44:17;;;;;;;3.93;2.10;;;-0.80;99.90;;;;;;5094684;28;20036;-80
2024/01/19 06:46:45;;;;;;;4.13;1.90;;;-0.90;99.90;;;;;;5061006;28;20048;-80
2024/01/19 06:49:13;;;;;;;7.77;2.90;;;-0.80;99.90;;;;;;5074680;28;20094;-79
2024/01/19 06:51:41;;;;;;;7.70;3.80;;;-0.80;99.90;;;;;;5094135;28;20131;-80
2024/01/19 06:54:09;;;;;;;8.93;4.70;;;-0.70;99.90;;;;;;5077420;28;20040;-80
2024/01/19 06:56:36;;;;;;;10.33;5.03;;;-0.70;99.90;;;;;;5077049;28;20423;-80
2024/01/19 06:59:03;;;;;;;12.77;5.30;;;-0.60;99.90;;;;;;5077391;28;20071;-80
2024/01/19 07:01:30;;;;;;;10.70;5.03;;;-0.40;99.90;;;;;;5041258;28;20048;-80
2024/01/19 07:03:57;;;;;;;9.10;5.10;;;-0.40;99.90;;;;;;5075071;28;20044;-80
2024/01/19 07:06:24;;;;;;;9.67;4.70;;;-0.30;99.90;;;;;;5061203;28;20040;-80
2024/01/19 07:08:51;;;;;;;10.17;5.30;;;-0.20;99.90;;;;;;5077303;28;20040;-80
2024/01/19 07:11:20;;;;;;;13.07;6.17;;;-0.20;99.90;;;;;;5094070;28;20040;-80
2024/01/19 07:13:47;;;;;;;10.63;5.80;;;-0.20;99.90;;;;;;5061041;28;20093;-80
2024/01/19 07:16:14;;;;;;;16.27;7.13;;;-0.10;99.90;;;;;;5094003;28;20476;-80
2024/01/19 07:18:41;;;;;;;15.83;7.10;;;-0.10;99.90;;;;;;5077188;28;20052;-80
2024/01/19 07:21:09;;;;;;;13.57;7.40;;;-0.10;99.90;;;;;;5095195;28;20442;-80
2024/01/19 07:23:36;;;;;;;14.20;6.77;;;-0.10;99.90;;;;;;5060608;28;20048;-79
2024/01/19 07:26:03;;;;;;;12.23;6.90;;;-0.10;99.90;;;;;;5093666;28;20400;-79
2024/01/19 07:28:32;;;;;;;14.93;7.80;;;0.00;99.90;;;;;;5071785;28;20072;-80
2024/01/19 07:30:59;;;;;;;15.33;7.93;;;-0.10;99.90;;;;;;5075186;28;20040;-80
2024/01/19 07:33:26;;;;;;;14.37;8.23;;;0.00;99.90;;;;;;5076789;28;20086;-80
2024/01/19 07:42:54;;;;;;;14.50;7.57;;;0.00;99.90;;;;;;5162522;23;20311;-84
2024/01/19 07:45:21;;;;;;;16.00;8.83;;;0.00;99.90;;;;;;5135709;23;20082;-81
2024/01/19 07:47:48;;;;;;;23.10;11.53;;;0.00;99.90;;;;;;4896573;29;20075;-77
2024/01/19 07:50:16;;;;;;;17.17;9.07;;;0.00;99.90;;;;;;4910494;29;20458;-77
2024/01/19 07:52:43;;;;;;;18.20;8.27;;;0.00;99.90;;;;;;4887673;29;20049;-77
2024/01/19 07:55:10;;;;;;;17.70;9.73;;;0.00;99.90;;;;;;4897969;29;20400;-77
2024/01/19 07:57:37;;;;;;;20.23;9.93;;;0.00;99.90;;;;;;4882419;29;20100;-77
2024/01/19 08:00:04;;;;;;;18.50;10.00;;;0.00;99.90;;;;;;4897728;29;20133;-78
2024/01/19 08:02:32;;;;;;;17.10;9.50;;;0.00;99.90;;;;;;4879201;29;20052;-77
2024/01/19 08:04:59;;;;;;;18.13;9.23;;;0.00;99.90;;;;;;4863728;29;20057;-77
2024/01/19 08:07:26;;;;;;;17.70;9.50;;;0.00;99.90;;;;;;4880250;29;20044;-77
2024/01/19 08:09:53;;;;;;;16.63;9.53;;;0.00;99.90;;;;;;4897229;29;20052;-77
2024/01/19 08:12:20;;;;;;;17.40;10.23;;;-0.10;99.90;;;;;;4897502;29;20059;-76
2024/01/19 08:14:47;;;;;;;21.10;11.80;;;0.00;99.90;;;;;;4898700;29;20096;-77
2024/01/19 08:17:15;;;;;;;17.73;11.20;;;-0.10;99.90;;;;;;4882166;29;20055;-77
2024/01/19 08:19:42;;;;;;;18.67;10.70;;;0.00;99.90;;;;;;4866958;29;20040;-78
2024/01/19 08:22:11;;;;;;;13.57;9.57;;;0.00;99.90;;;;;;4897301;29;20151;-78
2024/01/19 08:24:38;;;;;;;19.33;12.33;;;0.00;99.90;;;;;;4867145;29;20095;-77
2024/01/19 08:27:05;;;;;;;19.17;11.73;;;0.00;99.90;;;;;;4878712;29;20053;-78
2024/01/19 08:29:33;;;;;;;18.93;10.93;;;0.10;99.90;;;;;;4893044;29;20519;-78
2024/01/19 08:32:00;;;;;;;20.20;11.33;;;0.10;99.90;;;;;;4897218;29;20040;-78
2024/01/19 08:34:27;;;;;;;18.57;10.77;;;0.10;99.90;;;;;;4881352;29;20052;-77
2024/01/19 08:36:54;;;;;;;22.07;10.63;;;0.10;99.90;;;;;;4881555;29;20065;-78
2024/01/19 08:39:24;;;;;;;15.97;9.77;;;0.10;99.90;;;;;;4897100;29;20346;-77
2024/01/19 08:41:51;;;;;;;18.40;9.47;;;0.10;99.90;;;;;;4897043;29;20048;-77
2024/01/19 08:44:18;;;;;;;16.37;10.30;;;0.20;99.90;;;;;;4881565;29;20408;-77
2024/01/19 08:46:45;;;;;;;20.63;11.33;;;0.20;99.90;;;;;;4896809;29;20056;-77
2024/01/19 08:49:12;;;;;;;20.17;11.57;;;0.20;99.90;;;;;;4897076;29;20044;-77
2024/01/19 08:51:40;;;;;;;22.13;11.73;;;0.20;99.90;;;;;;4898181;29;20056;-77
2024/01/19 08:54:09;;;;;;;15.97;9.67;;;0.20;99.90;;;;;;4881960;29;20051;-77
2024/01/19 08:56:36;;;;;;;20.50;10.73;;;0.20;99.90;;;;;;4881282;29;20053;-77
2024/01/19 08:59:17;;;;;;;21.17;11.37;;;0.20;99.90;;;;;;4869811;29;20413;-77
2024/01/19 09:01:48;;;;;;;19.87;11.47;;;0.20;99.90;;;;;;4879069;29;20128;-77
2024/01/19 09:04:15;;;;;;;18.23;10.17;;;0.20;99.90;;;;;;4896736;29;20045;-77
2024/01/19 09:06:43;;;;;;;21.87;11.37;;;0.30;99.90;;;;;;4896748;29;20047;-77
2024/01/19 09:09:11;;;;;;;23.93;11.57;;;0.30;99.90;;;;;;4896995;29;20036;-78
2024/01/19 09:11:39;;;;;;;22.03;12.00;;;0.40;99.90;;;;;;4881086;29;20045;-77
2024/01/19 09:14:09;;;;;;;23.80;11.80;;;0.40;99.90;;;;;;4881299;29;20053;-77
2024/01/19 09:16:43;;;;;;;17.80;10.40;;;0.40;99.90;;;;;;4877962;29;20052;-77
2024/01/19 09:19:11;;;;;;;21.40;11.83;;;0.40;99.90;;;;;;4893314;29;20063;-77
2024/01/19 09:21:39;;;;;;;22.23;11.47;;;0.40;99.90;;;;;;4896534;29;20557;-77
2024/01/19 09:24:07;;;;;;;18.53;9.70;;;0.30;99.90;;;;;;4896478;29;20061;-77
2024/01/19 09:26:34;;;;;;;20.40;11.37;;;0.30;99.90;;;;;;4881005;29;20101;-77
2024/01/19 09:29:01;;;;;;;19.13;10.07;;;0.30;99.90;;;;;;4881069;29;20136;-77
2024/01/19 09:31:28;;;;;;;22.77;11.60;;;0.30;99.90;;;;;;4881012;29;20083;-77
2024/01/19 09:33:55;;;;;;;18.30;9.90;;;0.30;99.90;;;;;;4865802;29;20490;-77
2024/01/19 09:36:22;;;;;;;22.43;10.30;;;0.40;99.90;;;;;;4880988;29;20100;-78
2024/01/19 09:38:49;;;;;;;17.90;8.87;;;0.40;99.90;;;;;;4877923;29;20059;-77
2024/01/19 09:41:43;;;;;;;17.50;9.33;;;0.50;99.90;;;;;;4874318;29;20063;-77
2024/01/19 09:44:11;;;;;;;18.20;9.33;;;0.60;99.90;;;;;;4870472;29;20104;-77
2024/01/19 09:46:50;;;;;;;16.43;8.73;;;0.60;99.90;;;;;;4896226;29;20517;-77
2024/01/19 09:49:32;;;;;;;22.93;11.33;;;0.70;99.90;;;;;;4896346;29;20136;-77
2024/01/19 09:52:09;;;;;;;19.73;11.45;;;0.60;99.90;;;;;;4896189;29;20059;-76
2024/01/19 09:54:37;;;;;;;18.67;9.70;;;0.60;99.90;;;;;;4896276;29;20044;-76
2024/01/19 09:57:04;;;;;;;18.80;10.20;;;0.70;99.90;;;;;;4880704;29;20053;-77
2024/01/19 09:59:33;;;;;;;28.37;14.67;;;0.70;99.90;;;;;;4896201;29;20041;-76
2024/01/19 10:02:00;;;;;;;27.73;13.60;;;0.80;99.90;;;;;;4896034;29;20146;-77
2024/01/19 10:04:29;;;;;;;24.93;13.27;;;0.70;99.90;;;;;;4897455;29;20514;-77
2024/01/19 10:06:56;;;;;;;20.67;10.60;;;0.80;99.90;;;;;;4880592;29;20112;-77
2024/01/19 10:09:24;;;;;;;21.00;10.70;;;0.80;99.90;;;;;;4877596;29;20230;-77
2024/01/19 10:11:54;;;;;;;19.47;10.93;;;0.90;99.90;;;;;;4873643;29;20045;-77
2024/01/19 10:14:23;;;;;;;26.53;14.23;;;0.90;99.90;;;;;;4896051;29;20068;-77
2024/01/19 10:16:51;;;;;;;23.67;12.27;;;1.00;99.90;;;;;;4896050;29;20055;-77
2024/01/19 10:19:20;;;;;;;29.23;14.27;;;1.00;99.90;;;;;;4880644;29;20049;-77
2024/01/19 10:21:49;;;;;;;23.57;14.17;;;1.00;99.90;;;;;;4877893;29;20108;-77
2024/01/19 10:24:19;;;;;;;23.60;12.50;;;1.00;99.90;;;;;;4894252;29;20052;-77
2024/01/19 10:26:55;;;;;;;25.07;12.30;;;1.10;99.90;;;;;;4880874;29;20040;-78
2024/01/19 10:29:23;;;;;;;20.27;11.37;;;1.10;99.90;;;;;;4880277;29;20136;-77
2024/01/19 10:31:52;;;;;;;19.40;11.67;;;1.10;99.90;;;;;;4863604;29;20045;-77
2024/01/19 10:34:21;;;;;;;18.37;10.67;;;1.10;99.90;;;;;;4896725;29;20048;-77
2024/01/19 10:36:50;;;;;;;23.20;12.10;;;1.10;99.90;;;;;;4899318;29;20405;-77
2024/01/19 10:39:22;;;;;;;19.50;12.33;;;1.10;99.90;;;;;;4884558;29;20067;-77
2024/01/19 10:41:51;;;;;;;18.97;11.40;;;1.00;99.90;;;;;;4899214;29;20048;-77
2024/01/19 10:44:21;;;;;;;18.97;11.30;;;1.00;99.90;;;;;;4899178;29;20523;-77
2024/01/19 10:46:53;;;;;;;18.37;11.17;;;0.90;99.90;;;;;;4883341;29;20512;-77
2024/01/19 10:49:20;;;;;;;16.77;10.73;;;0.90;99.90;;;;;;4883579;29;20060;-77
2024/01/19 10:51:47;;;;;;;18.30;9.83;;;0.90;99.90;;;;;;4883743;29;20072;-83
2024/01/19 10:54:23;;;;;;;16.93;9.97;;;0.90;99.90;;;;;;4883709;29;20099;-83
2024/01/19 10:57:04;;;;;;;16.23;10.00;;;0.90;99.90;;;;;;4899020;29;20053;-83
2024/01/19 10:59:32;;;;;;;16.47;10.13;;;0.80;99.90;;;;;;4899005;29;20049;-82
2024/01/19 11:02:01;;;;;;;15.27;9.07;;;0.80;99.90;;;;;;4883565;29;20116;-82
2024/01/19 11:04:28;;;;;;;15.87;9.20;;;0.90;99.90;;;;;;4883394;29;20049;-82
2024/01/19 11:06:56;;;;;;;18.57;10.97;;;0.80;99.90;;;;;;4883185;29;20049;-82
2024/01/19 11:09:23;;;;;;;15.40;9.63;;;0.90;99.90;;;;;;4864783;29;20049;-82
2024/01/19 11:11:54;;;;;;;19.27;11.63;;;0.90;99.90;;;;;;4876416;29;20144;-80
2024/01/19 11:14:24;;;;;;;15.87;8.97;;;1.00;99.90;;;;;;4880049;29;20501;-81
2024/01/19 11:16:55;;;;;;;16.70;9.37;;;1.10;99.90;;;;;;4879986;29;20137;-80
2024/01/19 11:19:23;;;;;;;19.67;11.02;;;1.20;99.90;;;;;;4887575;29;20044;-80
2024/01/19 11:21:51;;;;;;;16.90;10.47;;;1.20;99.90;;;;;;4898675;29;20048;-80
2024/01/19 11:24:20;;;;;;;16.80;10.27;;;1.30;99.90;;;;;;4898518;29;20096;-81
2024/01/19 11:26:59;;;;;;;18.20;10.63;;;1.40;99.90;;;;;;4898454;29;20045;-81
2024/01/19 11:29:32;;;;;;;18.83;9.33;;;1.40;99.90;;;;;;4883056;29;20055;-81
2024/01/19 11:32:01;;;;;;;15.07;9.20;;;1.50;99.90;;;;;;4879892;29;20056;-80
2024/01/19 11:34:45;;;;;;;15.80;9.17;;;1.50;99.90;;;;;;4864799;29;20063;-80
2024/01/19 11:37:42;;;;;;;21.77;9.33;;;1.60;99.90;;;;;;4886390;29;20079;-78
2024/01/19 11:40:30;;;;;;;15.82;9.55;;;1.60;99.90;;;;;;4897349;29;20056;-82
2024/01/19 11:42:57;;;;;;;12.53;8.20;;;1.60;99.90;;;;;;4897976;29;20397;-81
2024/01/19 11:45:27;;;;;;;11.60;7.53;;;1.60;99.90;;;;;;4879277;29;20521;-80
2024/01/19 11:47:55;;;;;;;12.87;6.67;;;1.60;99.90;;;;;;4880684;29;20382;-80
2024/01/19 11:50:46;;;;;;;12.52;6.85;;;1.70;99.90;;;;;;4879485;29;20046;-81
2024/01/19 11:53:14;;;;;;;17.03;7.10;;;1.80;99.90;;;;;;4875271;29;20552;-82
2024/01/19 11:55:45;;;;;;;15.27;8.00;;;1.80;99.90;;;;;;4863930;29;20053;-81
2024/01/19 11:58:30;;;;;;;14.30;7.20;;;2.00;99.90;;;;;;4863991;29;20063;-81
2024/01/19 12:01:03;;;;;;;16.90;9.43;;;2.10;99.90;;;;;;4879449;29;20560;-81
2024/01/19 12:03:30;;;;;;;13.83;8.27;;;2.20;99.90;;;;;;4879744;29;20078;-80
2024/01/19 12:06:00;;;;;;;16.13;7.77;;;2.40;99.90;;;;;;4863962;29;20493;-82
2024/01/19 12:08:28;;;;;;;12.43;7.20;;;2.50;99.90;;;;;;4890900;29;20485;-81
2024/01/19 12:11:06;;;;;;;10.27;6.20;;;2.50;99.90;;;;;;4882424;29;20055;-80
2024/01/19 12:13:35;;;;;;;14.90;7.63;;;2.60;99.90;;;;;;4867468;29;20047;-81
2024/01/19 12:16:03;;;;;;;14.50;7.72;;;2.70;99.90;;;;;;4897797;29;20037;-79
2024/01/19 12:18:35;;;;;;;10.73;6.80;;;2.60;99.90;;;;;;4867176;29;20052;-80
2024/01/19 12:21:04;;;;;;;13.85;6.88;;;2.60;99.90;;;;;;4882023;29;20049;-83
2024/01/19 12:23:35;;;;;;;12.25;6.30;;;2.50;99.90;;;;;;4882349;29;20116;-81
2024/01/19 12:26:05;;;;;;;10.93;6.38;;;2.50;99.90;;;;;;4897663;29;20075;-81
2024/01/19 12:28:33;;;;;;;9.82;5.68;;;2.50;99.90;;;;;;4881979;29;20135;-79
2024/01/19 12:31:01;;;;;;;9.90;5.57;;;2.50;99.90;;;;;;4897340;29;20584;-79
2024/01/19 12:33:29;;;;;;;12.93;6.38;;;2.50;99.90;;;;;;4897291;29;20049;-80
2024/01/19 12:36:13;;;;;;;11.52;7.68;;;2.60;99.90;;;;;;4882023;29;20047;-80
2024/01/19 12:38:41;;;;;;;14.20;7.35;;;2.70;99.90;;;;;;4897212;29;20088;-79
2024/01/19 12:41:16;;;;;;;11.15;6.50;;;2.70;99.90;;;;;;4898453;29;20072;-79
2024/01/19 12:43:43;;;;;;;13.10;6.53;;;2.80;99.90;;;;;;4898510;29;20454;-79
2024/01/19 12:46:12;;;;;;;14.20;7.43;;;2.80;99.90;;;;;;4881492;29;20116;-80
2024/01/19 12:48:39;;;;;;;17.75;6.82;;;2.80;99.90;;;;;;4896990;29;20045;-79
2024/01/19 12:51:07;;;;;;;10.82;6.65;;;2.90;99.90;;;;;;4881618;29;20123;-79
2024/01/19 12:53:34;;;;;;;11.85;6.22;;;2.90;99.90;;;;;;4880063;29;20136;-79
2024/01/19 12:56:21;;;;;;;10.25;6.32;;;3.00;99.90;;;;;;4897983;29;20041;-79
2024/01/19 12:58:49;;;;;;;9.27;5.80;;;3.00;99.90;;;;;;4898105;29;20075;-79